createdAt,value
2023-01-29T00:00:18.877Z,99441.25
2023-01-29T00:02:46.938Z,99447.78
2023-01-29T00:05:26.908Z,99447.63
2023-01-29T00:07:56.786Z,99440.78
2023-01-29T00:10:25.811Z,99434.88
2023-01-29T00:12:53.420Z,99445.06
2023-01-29T00:15:20.955Z,99442.56
2023-01-29T00:17:48.180Z,99449.94
2023-01-29T00:20:16.015Z,99453.63
2023-01-29T00:22:42.975Z,99444.59
2023-01-29T00:25:10.741Z,99446.06
2023-01-29T00:27:37.948Z,99442.91
2023-01-29T00:30:16.898Z,99448.62
2023-01-29T00:32:44.077Z,99456.12
2023-01-29T00:35:12.048Z,99455.66
2023-01-29T00:37:39.191Z,99455.28
2023-01-29T00:40:06.777Z,99454.16
2023-01-29T00:42:51.991Z,99457.31
2023-01-29T00:45:19.405Z,99458.63
2023-01-29T00:47:46.485Z,99461.66
2023-01-29T00:50:13.948Z,99463.97
2023-01-29T00:52:42.344Z,99458.63
2023-01-29T00:55:11.012Z,99459.47
2023-01-29T00:57:39.301Z,99466.19
2023-01-29T01:00:09.493Z,99484.75
2023-01-29T01:02:55.071Z,99460.28
2023-01-29T01:05:22.256Z,99474.34
2023-01-29T01:07:53.163Z,99478.03
2023-01-29T01:10:26.407Z,99479.22
2023-01-29T01:12:58.123Z,99482.06
2023-01-29T01:15:28.532Z,99483.72
2023-01-29T01:17:57.944Z,99491.47
2023-01-29T01:20:27.107Z,99483.91
2023-01-29T01:22:54.749Z,99480.41
2023-01-29T01:25:25.678Z,99479.88
2023-01-29T01:27:54.376Z,99482.72
2023-01-29T01:30:22.264Z,99485.41
2023-01-29T01:32:49.764Z,99484.38
2023-01-29T01:35:16.718Z,99487.25
2023-01-29T01:37:43.853Z,99486.22
2023-01-29T01:40:18.938Z,99493.44
2023-01-29T01:42:58.045Z,99491.41
2023-01-29T01:45:35.028Z,99497.94
2023-01-29T01:48:14.407Z,99492.78
2023-01-29T01:51:04.525Z,99489.75
2023-01-29T01:53:38.918Z,99498.13
2023-01-29T01:56:21.614Z,99485.44
2023-01-29T01:58:54.580Z,99496.63
2023-01-29T02:01:27.760Z,99489.97
2023-01-29T02:04:22.029Z,99500.50
2023-01-29T02:07:09.424Z,99507.03
2023-01-29T02:09:41.806Z,99505.03
2023-01-29T02:12:14.119Z,99509.91
2023-01-29T02:14:43.043Z,99509.06
2023-01-29T02:17:16.074Z,99507.22
2023-01-29T02:20:07.444Z,99510.72
2023-01-29T02:23:02.712Z,99505.87
2023-01-29T02:26:07.601Z,99505.87
2023-01-29T02:28:41.251Z,99510.06
2023-01-29T02:31:25.434Z,99515.44
2023-01-29T02:34:10.347Z,99516.44
2023-01-29T02:36:43.533Z,99513.06
2023-01-29T02:39:13.183Z,99510.91
2023-01-29T02:42:03.536Z,99518.47
2023-01-29T02:44:35.486Z,99510.09
2023-01-29T02:47:20.489Z,99514.78
2023-01-29T02:49:59.407Z,99512.09
2023-01-29T02:52:43.423Z,99519.13
2023-01-29T02:55:21.780Z,99511.75
2023-01-29T02:57:54.165Z,99516.78
2023-01-29T03:00:25.382Z,99524.47
2023-01-29T03:03:08.099Z,99528.50
2023-01-29T03:05:57.109Z,99528.34
2023-01-29T03:08:50.474Z,99532.38
2023-01-29T03:11:18.116Z,99536.53
2023-01-29T03:13:54.422Z,99536.72
2023-01-29T03:16:30.683Z,99541.22
2023-01-29T03:19:05.197Z,99535.41
2023-01-29T03:21:51.382Z,99546.75
2023-01-29T03:24:43.822Z,99548.78
2023-01-29T03:27:32.820Z,99546.44
2023-01-29T03:30:20.231Z,99546.94
2023-01-29T03:32:49.315Z,99545.25
2023-01-29T03:35:22.110Z,99548.94
2023-01-29T03:37:49.831Z,99553.13
2023-01-29T03:40:18.118Z,99547.75
2023-01-29T03:42:52.635Z,99551.28
2023-01-29T03:45:46.875Z,99550.44
2023-01-29T03:48:48.988Z,99553.28
2023-01-29T03:51:45.198Z,99559.00
2023-01-29T03:54:43.171Z,99557.97
2023-01-29T03:57:21.781Z,99551.78
2023-01-29T04:00:07.880Z,99547.44
2023-01-29T04:02:43.639Z,99555.66
2023-01-29T04:05:19.085Z,99549.28
2023-01-29T04:07:49.248Z,99550.31
2023-01-29T04:10:21.786Z,99556.81
2023-01-29T04:13:02.236Z,99555.66
2023-01-29T04:15:34.152Z,99552.47
2023-01-29T04:18:01.877Z,99553.63
2023-01-29T04:20:29.586Z,99557.31
2023-01-29T04:22:56.825Z,99557.81
2023-01-29T04:25:29.001Z,99557.81
2023-01-29T04:28:09.042Z,99551.13
2023-01-29T04:30:52.011Z,99546.13
2023-01-29T04:33:29.356Z,99549.97
2023-01-29T04:36:11.457Z,99544.59
2023-01-29T04:39:10.488Z,99544.13
2023-01-29T04:41:41.756Z,99536.94
2023-01-29T04:44:20.690Z,99541.63
2023-01-29T04:46:47.970Z,99543.28
2023-01-29T04:49:26.788Z,99542.78
2023-01-29T04:52:30.485Z,99539.13
2023-01-29T04:55:09.904Z,99540.62
2023-01-29T04:57:47.711Z,99556.50
2023-01-29T05:00:24.336Z,99535.28
2023-01-29T05:02:51.516Z,99535.63
2023-01-29T05:05:20.554Z,99533.12
2023-01-29T05:07:49.000Z,99529.63
2023-01-29T05:10:19.992Z,99526.13
2023-01-29T05:12:54.200Z,99531.78
2023-01-29T05:15:28.050Z,99527.59
2023-01-29T05:18:02.172Z,99530.94
2023-01-29T05:20:33.313Z,99535.97
2023-01-29T05:23:00.684Z,99545.97
2023-01-29T05:25:31.409Z,99539.97
2023-01-29T05:28:12.036Z,99553.16
2023-01-29T05:30:39.922Z,99549.19
2023-01-29T05:33:23.481Z,99552.34
2023-01-29T05:35:51.049Z,99549.34
2023-01-29T05:38:19.042Z,99560.53
2023-01-29T05:40:46.600Z,99555.19
2023-01-29T05:43:19.143Z,99552.84
2023-01-29T05:45:57.271Z,99548.84
2023-01-29T05:48:25.292Z,99560.03
2023-01-29T05:50:52.543Z,99569.56
2023-01-29T05:53:19.985Z,99568.91
2023-01-29T05:55:48.368Z,99574.25
2023-01-29T05:58:15.332Z,99573.41
2023-01-29T06:00:42.229Z,99575.25
2023-01-29T06:03:09.840Z,99574.59
2023-01-29T06:05:40.406Z,99575.44
2023-01-29T06:08:09.097Z,99572.56
2023-01-29T06:10:35.923Z,99578.94
2023-01-29T06:13:03.268Z,99577.25
2023-01-29T06:15:30.683Z,99578.44
2023-01-29T06:17:57.884Z,99579.78
2023-01-29T06:20:25.161Z,99580.59
2023-01-29T06:22:52.290Z,99579.28
2023-01-29T06:25:19.682Z,99579.09
2023-01-29T06:27:46.769Z,99576.59
2023-01-29T06:30:14.739Z,99579.94
2023-01-29T06:32:41.963Z,99582.28
2023-01-29T06:35:10.251Z,99581.63
2023-01-29T06:37:38.747Z,99586.97
2023-01-29T06:40:06.058Z,99591.31
2023-01-29T06:42:35.801Z,99594.66
2023-01-29T06:45:03.304Z,99594.81
2023-01-29T06:47:30.069Z,99596.66
2023-01-29T06:49:57.821Z,99595.00
2023-01-29T06:52:29.205Z,99600.16
2023-01-29T06:54:57.125Z,99603.00
2023-01-29T06:57:24.078Z,99589.81
2023-01-29T06:59:51.540Z,99586.81
2023-01-29T07:02:18.678Z,99586.62
2023-01-29T07:04:45.883Z,99591.97
2023-01-29T07:07:15.608Z,99585.78
2023-01-29T07:09:43.324Z,99581.63
2023-01-29T07:12:11.312Z,99586.97
2023-01-29T07:14:38.404Z,99588.47
2023-01-29T07:17:05.920Z,99596.50
2023-01-29T07:19:32.996Z,99598.34
2023-01-29T07:22:02.671Z,99592.16
2023-01-29T07:24:29.971Z,99593.81
2023-01-29T07:26:57.371Z,99590.97
2023-01-29T07:29:24.458Z,99593.66
2023-01-29T07:31:51.745Z,99597.16
2023-01-29T07:34:18.878Z,99599.50
2023-01-29T07:36:46.062Z,99604.34
2023-01-29T07:39:13.469Z,99596.50
2023-01-29T07:41:40.216Z,99599.84
2023-01-29T07:44:07.400Z,99600.31
2023-01-29T07:46:34.490Z,99597.47
2023-01-29T07:49:01.330Z,99597.66
2023-01-29T07:51:28.727Z,99594.81
2023-01-29T07:53:55.520Z,99587.28
2023-01-29T07:56:22.643Z,99588.31
2023-01-29T07:58:50.080Z,99586.28
2023-01-29T08:01:16.945Z,99596.50
2023-01-29T08:03:44.417Z,99606.00
2023-01-29T08:06:11.215Z,99610.53
2023-01-29T08:08:38.308Z,99614.88
2023-01-29T08:11:05.751Z,99610.19
2023-01-29T08:13:34.003Z,99612.69
2023-01-29T08:16:05.347Z,99607.34
2023-01-29T08:18:32.564Z,99609.00
2023-01-29T08:21:01.273Z,99600.50
2023-01-29T08:23:28.417Z,99607.00
2023-01-29T08:25:55.777Z,99605.81
2023-01-29T08:28:23.257Z,99610.19
2023-01-29T08:30:50.119Z,99612.19
2023-01-29T08:33:21.536Z,99614.69
2023-01-29T08:35:53.779Z,99620.03
2023-01-29T08:38:21.503Z,99615.38
2023-01-29T08:40:48.320Z,99610.88
2023-01-29T08:43:15.490Z,99619.91
2023-01-29T08:45:44.035Z,99612.72
2023-01-29T08:48:11.230Z,99620.56
2023-01-29T08:50:38.824Z,99617.88
2023-01-29T08:53:08.445Z,99623.25
2023-01-29T08:55:37.542Z,99625.06
2023-01-29T08:58:06.413Z,99626.56
2023-01-29T09:00:35.087Z,99631.59
2023-01-29T09:03:01.998Z,99634.09
2023-01-29T09:05:29.897Z,99633.75
2023-01-29T09:07:58.468Z,99638.75
2023-01-29T09:10:26.040Z,99643.28
2023-01-29T09:12:53.469Z,99642.09
2023-01-29T09:15:20.602Z,99642.41
2023-01-29T09:17:49.522Z,99640.28
2023-01-29T09:20:17.872Z,99646.94
2023-01-29T09:22:45.651Z,99646.59
2023-01-29T09:25:13.084Z,99647.28
2023-01-29T09:27:40.219Z,99647.09
2023-01-29T09:30:07.954Z,99647.25
2023-01-29T09:32:52.542Z,99648.75
2023-01-29T09:35:22.678Z,99650.09
2023-01-29T09:37:50.940Z,99652.25
2023-01-29T09:40:52.071Z,99653.75
2023-01-29T09:43:25.436Z,99655.25
2023-01-29T09:46:16.259Z,99654.06
2023-01-29T09:48:46.666Z,99649.38
2023-01-29T09:51:34.079Z,99641.16
2023-01-29T09:54:25.221Z,99645.34
2023-01-29T09:56:57.119Z,99646.00
2023-01-29T09:59:27.930Z,99652.38
2023-01-29T10:02:16.484Z,99650.03
2023-01-29T10:05:10.671Z,99640.63
2023-01-29T10:07:37.388Z,99652.50
2023-01-29T10:10:14.772Z,99653.00
2023-01-29T10:13:26.674Z,99651.63
2023-01-29T10:16:03.301Z,99651.97
2023-01-29T10:18:33.017Z,99651.44
2023-01-29T10:21:19.339Z,99653.78
2023-01-29T10:24:01.008Z,99650.56
2023-01-29T10:26:29.593Z,99640.31
2023-01-29T10:28:59.591Z,99636.28
2023-01-29T10:31:33.471Z,99642.16
2023-01-29T10:34:21.622Z,99644.47
2023-01-29T10:36:50.358Z,99651.16
2023-01-29T10:39:19.209Z,99640.91
2023-01-29T10:42:04.256Z,99640.72
2023-01-29T10:44:43.575Z,99633.16
2023-01-29T10:47:42.040Z,99642.53
2023-01-29T10:50:31.545Z,99645.53
2023-01-29T10:53:23.839Z,99640.47
2023-01-29T10:56:20.932Z,99629.38
2023-01-29T10:58:57.317Z,99627.00
2023-01-29T11:01:24.241Z,99628.66
2023-01-29T11:04:02.018Z,99625.81
2023-01-29T11:06:32.045Z,99618.59
2023-01-29T11:09:29.598Z,99609.53
2023-01-29T11:11:59.120Z,99604.81
2023-01-29T11:14:38.370Z,99601.12
2023-01-29T11:17:05.397Z,99594.41
2023-01-29T11:19:42.926Z,99586.00
2023-01-29T11:22:17.669Z,99590.00
2023-01-29T11:24:45.351Z,99586.94
2023-01-29T11:27:21.640Z,99581.87
2023-01-29T11:29:48.973Z,99575.94
2023-01-29T11:32:19.133Z,99566.56
2023-01-29T11:35:21.912Z,99560.81
2023-01-29T11:37:49.511Z,99557.75
2023-01-29T11:40:19.563Z,99561.75
2023-01-29T11:42:47.382Z,99555.00
2023-01-29T11:45:20.901Z,99550.28
2023-01-29T11:47:54.134Z,99547.22
2023-01-29T11:50:27.871Z,99544.19
2023-01-29T11:52:55.214Z,99548.16
2023-01-29T11:55:25.460Z,99539.09
2023-01-29T11:58:17.218Z,99539.09
2023-01-29T12:00:49.793Z,99537.25
2023-01-29T12:03:25.108Z,99538.06
2023-01-29T12:06:00.599Z,99534.56
2023-01-29T12:08:35.598Z,99539.09
2023-01-29T12:11:27.712Z,99529.37
2023-01-29T12:13:57.266Z,99531.22
2023-01-29T12:16:51.911Z,99531.41
2023-01-29T12:19:55.589Z,99528.91
2023-01-29T12:22:29.479Z,99526.59
2023-01-29T12:25:06.971Z,99523.06
2023-01-29T12:28:17.740Z,99516.03
2023-01-29T12:31:28.298Z,99511.69
2023-01-29T12:34:04.632Z,99496.97
2023-01-29T12:36:38.304Z,99496.97
2023-01-29T12:39:06.079Z,99493.44
2023-01-29T12:41:46.199Z,99492.81
2023-01-29T12:44:22.084Z,99498.19
2023-01-29T12:46:56.627Z,99493.81
2023-01-29T12:49:28.590Z,99482.44
2023-01-29T12:52:05.407Z,99484.94
2023-01-29T12:54:41.362Z,99474.22
2023-01-29T12:57:18.706Z,99462.84
2023-01-29T12:59:50.614Z,99472.72
2023-01-29T13:02:45.949Z,99470.03
2023-01-29T13:05:16.900Z,99459.13
2023-01-29T13:07:50.284Z,99453.56
2023-01-29T13:10:32.871Z,99458.75
2023-01-29T13:13:13.012Z,99445.78
2023-01-29T13:15:44.396Z,99456.34
2023-01-29T13:18:19.143Z,99451.81
2023-01-29T13:20:51.238Z,99453.28
2023-01-29T13:23:29.961Z,99449.41
2023-01-29T13:25:57.953Z,99449.03
2023-01-29T13:28:27.964Z,99444.31
2023-01-29T13:31:25.990Z,99444.97
2023-01-29T13:34:20.650Z,99440.88
2023-01-29T13:36:52.098Z,99437.00
2023-01-29T13:39:25.748Z,99437.63
2023-01-29T13:41:55.466Z,99423.81
2023-01-29T13:44:40.193Z,99429.00
2023-01-29T13:47:21.611Z,99429.50
2023-01-29T13:50:07.833Z,99433.66
2023-01-29T13:52:40.259Z,99426.03
2023-01-29T13:55:22.739Z,99425.03
2023-01-29T13:57:55.866Z,99422.97
2023-01-29T14:00:25.068Z,99423.63
2023-01-29T14:02:55.816Z,99420.75
2023-01-29T14:05:32.159Z,99424.06
2023-01-29T14:08:09.471Z,99422.22
2023-01-29T14:10:38.073Z,99421.19
2023-01-29T14:13:05.911Z,99417.69
2023-01-29T14:15:34.708Z,99425.72
2023-01-29T14:18:20.244Z,99430.09
2023-01-29T14:20:51.603Z,99429.25
2023-01-29T14:23:25.023Z,99435.44
2023-01-29T14:25:53.292Z,99438.31
2023-01-29T14:28:24.409Z,99432.97
2023-01-29T14:30:53.393Z,99427.78
2023-01-29T14:33:29.776Z,99433.97
2023-01-29T14:35:58.392Z,99430.47
2023-01-29T14:38:29.981Z,99436.03
2023-01-29T14:41:29.829Z,99429.81
2023-01-29T14:44:35.590Z,99427.31
2023-01-29T14:47:07.964Z,99432.69
2023-01-29T14:50:02.550Z,99428.34
2023-01-29T14:52:41.684Z,99418.62
2023-01-29T14:55:39.012Z,99426.03
2023-01-29T14:58:10.833Z,99409.09
2023-01-29T15:00:44.390Z,99403.94
2023-01-29T15:03:22.664Z,99403.28
2023-01-29T15:05:52.353Z,99401.81
2023-01-29T15:08:47.408Z,99394.94
2023-01-29T15:11:35.012Z,99398.84
2023-01-29T15:14:24.268Z,99395.69
2023-01-29T15:17:10.745Z,99402.28
2023-01-29T15:19:45.673Z,99395.62
2023-01-29T15:22:22.273Z,99394.16
2023-01-29T15:25:19.543Z,99391.84
2023-01-29T15:27:48.741Z,99392.41
2023-01-29T15:30:20.563Z,99394.62
2023-01-29T15:32:49.477Z,99398.50
2023-01-29T15:35:29.191Z,99390.84
2023-01-29T15:38:21.377Z,99398.63
2023-01-29T15:40:59.508Z,99399.00
2023-01-29T15:43:27.151Z,99397.53
2023-01-29T15:46:20.841Z,99401.41
2023-01-29T15:48:50.306Z,99406.47
2023-01-29T15:51:25.114Z,99408.69
2023-01-29T15:54:02.703Z,99417.94
2023-01-29T15:56:44.691Z,99412.78
2023-01-29T15:59:27.880Z,99420.63
2023-01-29T16:01:56.819Z,99423.50
2023-01-29T16:04:29.831Z,99429.87
2023-01-29T16:06:59.139Z,99432.75
2023-01-29T16:09:29.544Z,99440.34
2023-01-29T16:12:00.153Z,99443.22
2023-01-29T16:14:29.592Z,99443.22
2023-01-29T16:16:57.206Z,99438.69
2023-01-29T16:19:30.505Z,99442.38
2023-01-29T16:21:58.466Z,99446.06
2023-01-29T16:24:27.692Z,99447.28
2023-01-29T16:27:01.604Z,99434.84
2023-01-29T16:29:33.714Z,99439.38
2023-01-29T16:32:03.513Z,99440.22
2023-01-29T16:34:44.444Z,99434.84
2023-01-29T16:37:27.456Z,99440.59
2023-01-29T16:39:56.128Z,99442.44
2023-01-29T16:42:29.983Z,99445.50
2023-01-29T16:45:27.313Z,99449.00
2023-01-29T16:48:27.746Z,99441.97
2023-01-29T16:51:20.059Z,99452.06
2023-01-29T16:54:19.058Z,99443.34
2023-01-29T16:56:52.925Z,99446.41
2023-01-29T16:59:35.117Z,99448.44
2023-01-29T17:02:04.507Z,99449.63
2023-01-29T17:04:34.327Z,99457.88
2023-01-29T17:07:03.124Z,99455.53
2023-01-29T17:09:36.975Z,99451.34
2023-01-29T17:12:08.696Z,99457.56
2023-01-29T17:14:41.391Z,99462.91
2023-01-29T17:17:19.971Z,99461.78
2023-01-29T17:19:49.342Z,99458.09
2023-01-29T17:22:17.432Z,99451.25
2023-01-29T17:24:46.312Z,99459.47
2023-01-29T17:27:21.822Z,99463.19
2023-01-29T17:29:49.832Z,99454.13
2023-01-29T17:32:19.305Z,99459.84
2023-01-29T17:34:47.676Z,99455.31
2023-01-29T17:37:17.487Z,99448.28
2023-01-29T17:39:51.442Z,99452.63
2023-01-29T17:42:21.578Z,99448.28
2023-01-29T17:44:50.808Z,99442.75
2023-01-29T17:47:19.333Z,99438.22
2023-01-29T17:49:48.300Z,99432.69
2023-01-29T17:52:16.823Z,99427.69
2023-01-29T17:54:46.207Z,99432.03
2023-01-29T17:57:19.014Z,99421.69
2023-01-29T17:59:48.399Z,99428.87
2023-01-29T18:02:29.376Z,99423.69
2023-01-29T18:05:00.360Z,99428.87
2023-01-29T18:07:28.473Z,99423.06
2023-01-29T18:09:57.525Z,99420.56
2023-01-29T18:12:28.143Z,99419.03
2023-01-29T18:14:56.574Z,99415.91
2023-01-29T18:17:26.889Z,99425.78
2023-01-29T18:19:58.688Z,99422.44
2023-01-29T18:22:26.922Z,99419.31
2023-01-29T18:24:55.734Z,99410.97
2023-01-29T18:27:23.802Z,99415.69
2023-01-29T18:29:53.593Z,99409.69
2023-01-29T18:32:22.899Z,99404.50
2023-01-29T18:34:52.029Z,99405.69
2023-01-29T18:37:20.381Z,99401.69
2023-01-29T18:39:49.273Z,99396.03
2023-01-29T18:42:18.162Z,99387.19
2023-01-29T18:44:47.031Z,99382.00
2023-01-29T18:47:15.230Z,99389.38
2023-01-29T18:49:49.555Z,99391.78
2023-01-29T18:52:18.663Z,99387.59
2023-01-29T18:54:47.379Z,99382.63
2023-01-29T18:58:30.068Z,99372.41
2023-01-29T19:00:05.481Z,99372.12
2023-01-29T19:02:34.493Z,99367.13
2023-01-29T19:05:03.721Z,99366.84
2023-01-29T19:07:31.789Z,99368.03
2023-01-29T19:10:00.326Z,99369.72
2023-01-29T19:12:30.089Z,99362.72
2023-01-29T19:14:58.803Z,99365.28
2023-01-29T19:17:31.084Z,99355.56
2023-01-29T19:20:04.256Z,99353.06
2023-01-29T19:22:33.591Z,99352.13
2023-01-29T19:25:02.770Z,99351.13
2023-01-29T19:27:32.456Z,99351.47
2023-01-29T19:30:02.859Z,99351.81
2023-01-29T19:32:30.665Z,99353.66
2023-01-29T19:34:59.473Z,99357.22
2023-01-29T19:37:29.543Z,99353.03
2023-01-29T19:39:58.424Z,99347.22
2023-01-29T19:42:28.638Z,99350.06
2023-01-29T19:44:56.814Z,99350.59
2023-01-29T19:47:25.093Z,99340.72
2023-01-29T19:49:53.846Z,99336.91
2023-01-29T19:52:50.707Z,99338.25
2023-01-29T19:55:21.553Z,99336.94
2023-01-29T19:57:54.361Z,99336.13
2023-01-29T20:00:23.512Z,99330.94
2023-01-29T20:02:52.381Z,99342.66
2023-01-29T20:05:21.950Z,99329.97
2023-01-29T20:07:52.078Z,99318.28
2023-01-29T20:10:21.009Z,99330.31
2023-01-29T20:12:50.617Z,99324.47
2023-01-29T20:15:19.394Z,99322.81
2023-01-29T20:17:47.882Z,99305.28
2023-01-29T20:20:17.708Z,99314.66
2023-01-29T20:22:47.560Z,99310.69
2023-01-29T20:25:17.588Z,99305.50
2023-01-29T20:27:46.889Z,99306.34
2023-01-29T20:30:16.343Z,99301.00
2023-01-29T20:32:44.933Z,99291.66
2023-01-29T20:35:14.763Z,99292.84
2023-01-29T20:37:43.944Z,99297.53
2023-01-29T20:40:12.899Z,99283.22
2023-01-29T20:42:43.215Z,99288.38
2023-01-29T20:45:12.822Z,99288.22
2023-01-29T20:47:41.116Z,99285.53
2023-01-29T20:50:12.071Z,99268.84
2023-01-29T20:52:42.184Z,99262.37
2023-01-29T20:55:13.185Z,99268.19
2023-01-29T20:57:41.682Z,99264.03
2023-01-29T21:00:10.796Z,99265.91
2023-01-29T21:02:40.419Z,99263.91
2023-01-29T21:05:08.877Z,99265.91
2023-01-29T21:07:37.599Z,99267.56
2023-01-29T21:10:06.649Z,99259.75
2023-01-29T21:12:35.920Z,99269.75
2023-01-29T21:15:06.770Z,99267.25
2023-01-29T21:17:35.582Z,99262.75
2023-01-29T21:20:04.709Z,99268.44
2023-01-29T21:22:33.832Z,99258.78
2023-01-29T21:25:01.861Z,99257.41
2023-01-29T21:27:29.419Z,99255.94
2023-01-29T21:29:59.517Z,99262.78
2023-01-29T21:32:28.577Z,99261.16
2023-01-29T21:34:56.712Z,99256.81
2023-01-29T21:37:24.014Z,99258.47
2023-01-29T21:39:52.251Z,99252.66
2023-01-29T21:42:38.935Z,99264.16
2023-01-29T21:45:07.341Z,99261.34
2023-01-29T21:47:34.991Z,99263.84
2023-01-29T21:50:02.339Z,99262.84
2023-01-29T21:52:29.528Z,99263.50
2023-01-29T21:54:57.072Z,99242.84
2023-01-29T21:57:26.950Z,99244.66
2023-01-29T21:59:54.551Z,99252.84
2023-01-29T22:02:23.522Z,99242.34
2023-01-29T22:04:52.644Z,99243.69
2023-01-29T22:07:19.868Z,99251.00
2023-01-29T22:09:47.667Z,99259.50
2023-01-29T22:12:14.932Z,99255.19
2023-01-29T22:14:42.151Z,99258.00
2023-01-29T22:17:09.867Z,99249.03
2023-01-29T22:19:37.042Z,99257.84
2023-01-29T22:22:04.292Z,99256.53
2023-01-29T22:24:31.571Z,99256.69
2023-01-29T22:26:58.748Z,99253.37
2023-01-29T22:29:25.822Z,99254.87
2023-01-29T22:31:52.974Z,99244.66
2023-01-29T22:34:20.054Z,99249.88
2023-01-29T22:36:47.149Z,99247.84
2023-01-29T22:39:13.943Z,99247.84
2023-01-29T22:41:41.026Z,99253.34
2023-01-29T22:44:09.798Z,99246.34
2023-01-29T22:46:36.660Z,99243.88
2023-01-29T22:49:04.165Z,99243.53
2023-01-29T22:51:31.372Z,99237.53
2023-01-29T22:53:58.809Z,99227.53
2023-01-29T22:56:27.768Z,99226.38
2023-01-29T22:58:56.831Z,99221.19
2023-01-29T23:01:26.844Z,99223.50
2023-01-29T23:03:54.016Z,99223.69
2023-01-29T23:06:24.310Z,99220.50
2023-01-29T23:08:51.683Z,99215.19
2023-01-29T23:11:21.196Z,99205.53
2023-01-29T23:13:51.318Z,99204.84
2023-01-29T23:16:20.674Z,99203.53
2023-01-29T23:18:51.274Z,99207.19
2023-01-29T23:21:19.047Z,99209.03
2023-01-29T23:23:46.226Z,99206.53
2023-01-29T23:26:32.621Z,99201.37
2023-01-29T23:29:00.298Z,99194.69
2023-01-29T23:31:27.451Z,99191.00
2023-01-29T23:33:54.265Z,99188.34
2023-01-29T23:36:21.769Z,99183.69
2023-01-29T23:38:49.263Z,99191.19
2023-01-29T23:41:16.346Z,99186.69
2023-01-29T23:43:43.492Z,99177.19
2023-01-29T23:46:10.785Z,99174.69
2023-01-29T23:48:37.904Z,99177.03
2023-01-29T23:51:05.118Z,99175.03
2023-01-29T23:53:32.622Z,99173.19
2023-01-29T23:56:02.343Z,99173.50
2023-01-29T23:58:31.061Z,99164.19
